Fremont, OH

9:50 PM EDT on September 23, 2014 (GMT -0400)
Toledo Express | Change Station
CLOSE
Current Station
Airport
Location: Toledo,
Elevation: 692 ft
Nearby Weather Stations

Elev 692 ft 41.59 °N, 83.81 °W | Updated 58 minutes ago

Clear
Clear
56 °F
Feels Like 56 °F
N
4
Wind Variable Wind from ESE

Today
High -- | Low -- °F
--% Chance of Precip.
Yesterday
High -- | Low -- °F
Precip. -- in
7:20 AM 7:27 PM
Waning Crescent, 0% visible
Pressure 30.34 in
Visibility 10.0 miles
Clouds Clear
Dew Point 51 °F
Humidity 84%
Rainfall 0.00 in
Snow Depth Not available.
UV 0 out of 12
Pollen 3.80 out of 12
Air Quality Not available.
Flu Activity Not available.
METAR KTOL 240052Z 11003KT 10SM CLR 13/11 A3033 RMK AO2 SLP273 T01330106

More Conditions Fewer Conditions

Pressure 30.34 in
Visibility 10.0 miles
Clouds Clear
Dew Point 51 °F
Humidity 84%
Rainfall 0.00 in
Snow Depth Not available.
UV 0 out of 12
Pollen 3.80 out of 12
Air Quality Not available.
Flu Activity Not available.
METAR KTOL 240052Z 11003KT 10SM CLR 13/11 A3033 RMK AO2 SLP273 T01330106

More Conditions Fewer Conditions

10-Day Weather Forecast

Almanac

Astronomy

Sep. 23, 2014 Rise Set
Actual Time 7:20 AM EDT 7:27 PM EDT
Civil Twilight 6:53 AM EDT 7:55 PM EDT
Nautical Twilight 6:21 AM EDT 8:27 PM EDT
Astronomical Twilight 5:48 AM EDT 9:00 PM EDT
Moon 6:44 AM EDT (9/23) 7:06 PM EDT (9/23)
Length of Visible Light 13h 02m
Length of Day
12h 07m
Tomorrow will be 2m 45s shorter.
Waning Crescent, 0% of the Moon is Illuminated
Today
Waning Crescent
Sep 24
New
Oct 1
First Quarter
Oct 8
Full
Oct 15
Last Quarter

Today's Extremes

State Highs State Lows

Community

WunderPhotos

Upload Photos

1,755,844 photos uploaded!

Nearby

Snow Depth

Station Depth Elevation
No new snow has been reported.

Earthquake Activity

City Distance Mag. Time & Date
No recent earthquake activity has been reported nearby.
Minimum magnitude displayed is 2.5.

Coastal Water Temperatures

Place Temperature
Marblehead, OH 64.9 °F

Nearby Weather Stations